Time;durP1;ratioP1;P1;durP2;ratioP2;P2;SDS_P1;SDS_P2;PMS_P1;PMS_P2;Temp;Humidity;BMP_temperature;BMP_pressure;BME280_temperature;BME280_humidity;BME280_pressure;Samples;Min_cycle;Max_cycle;Signal;HPM_P1;HPM_P2
2022/03/30 00:01:29;;;;;;;13.52;4.93;;;4.20;99.90;;;;;;5143611;27;20436;-39
2022/03/30 00:03:55;;;;;;;7.75;4.75;;;4.20;99.90;;;;;;5147622;27;20294;-39
2022/03/30 00:06:20;;;;;;;10.55;5.90;;;4.10;99.90;;;;;;5143921;27;20090;-39
2022/03/30 00:08:46;;;;;;;11.52;4.82;;;4.00;99.90;;;;;;5151591;27;20027;-39
2022/03/30 00:11:12;;;;;;;10.55;4.65;;;4.00;99.90;;;;;;5144002;27;20022;-39
2022/03/30 00:13:38;;;;;;;14.50;5.25;;;4.00;99.90;;;;;;5143326;27;20026;-39
2022/03/30 00:16:04;;;;;;;15.02;4.10;;;3.90;99.90;;;;;;5150591;27;20471;-39
2022/03/30 00:18:31;;;;;;;14.50;4.53;;;3.90;99.90;;;;;;5152301;27;20023;-39
2022/03/30 00:20:56;;;;;;;11.68;4.78;;;3.80;99.90;;;;;;5136902;27;20022;-39
2022/03/30 00:23:22;;;;;;;15.00;5.50;;;3.80;99.90;;;;;;5143203;27;20098;-39
2022/03/30 00:25:47;;;;;;;16.05;5.10;;;3.70;99.90;;;;;;5148768;27;20324;-39
2022/03/30 00:28:13;;;;;;;11.68;4.15;;;3.70;99.90;;;;;;5135639;27;20551;-39
2022/03/30 00:30:39;;;;;;;13.65;4.47;;;3.70;99.90;;;;;;5149598;27;20030;-39
2022/03/30 00:33:04;;;;;;;12.32;4.18;;;3.70;99.90;;;;;;5151558;27;20041;-39
2022/03/30 00:35:30;;;;;;;15.90;4.80;;;3.60;99.90;;;;;;5137982;27;20252;-39
2022/03/30 00:37:55;;;;;;;14.70;5.03;;;3.60;99.90;;;;;;5145343;27;20031;-39
2022/03/30 00:40:21;;;;;;;11.25;4.63;;;3.60;99.90;;;;;;5150469;27;20298;-39
2022/03/30 00:42:47;;;;;;;13.90;5.28;;;3.60;99.90;;;;;;5151466;27;20023;-39
2022/03/30 00:45:16;;;;;;;13.63;4.72;;;3.60;99.90;;;;;;5139144;27;20059;-39
2022/03/30 00:47:42;;;;;;;14.93;4.63;;;3.60;99.90;;;;;;5108010;28;20111;-41
2022/03/30 00:50:10;;;;;;;17.08;4.88;;;3.50;99.90;;;;;;5108245;28;20476;-39
2022/03/30 00:52:36;;;;;;;9.57;3.67;;;3.50;99.90;;;;;;5110009;28;20141;-39
2022/03/30 00:55:04;;;;;;;9.60;4.05;;;3.40;99.90;;;;;;5132887;27;20027;-39
2022/03/30 00:57:30;;;;;;;23.55;6.35;;;3.40;99.90;;;;;;5149451;27;20019;-39
2022/03/30 00:59:57;;;;;;;11.88;3.63;;;3.40;99.90;;;;;;5141926;27;20062;-48
2022/03/30 01:02:23;;;;;;;15.00;4.50;;;3.40;99.90;;;;;;5148159;27;20019;-48
2022/03/30 01:04:50;;;;;;;12.20;4.72;;;3.40;99.90;;;;;;5137773;27;20707;-48
2022/03/30 01:07:16;;;;;;;10.30;4.18;;;3.30;99.90;;;;;;5140920;27;20022;-47
2022/03/30 01:09:42;;;;;;;18.90;4.80;;;3.30;99.90;;;;;;5150343;27;20071;-49
2022/03/30 01:12:09;;;;;;;11.13;4.03;;;3.30;99.90;;;;;;5151044;27;20018;-47
2022/03/30 01:14:35;;;;;;;13.82;4.07;;;3.20;99.90;;;;;;5149835;27;20411;-48
2022/03/30 01:17:00;;;;;;;16.10;4.93;;;3.30;99.90;;;;;;5146766;27;20021;-47
2022/03/30 01:19:31;;;;;;;10.95;3.90;;;3.20;99.90;;;;;;5141757;27;20403;-47
2022/03/30 01:21:57;;;;;;;16.38;4.18;;;3.20;99.90;;;;;;5151688;27;20030;-47
2022/03/30 01:24:22;;;;;;;15.68;3.88;;;3.20;99.90;;;;;;5151035;27;20022;-48
2022/03/30 01:26:48;;;;;;;12.60;4.38;;;3.20;99.90;;;;;;5135452;27;20019;-47
2022/03/30 01:34:43;;;;;;;13.45;4.60;;;3.20;99.90;;;;;;5144078;27;20032;-47
2022/03/30 01:37:10;;;;;;;6.65;3.17;;;3.10;99.90;;;;;;5146181;27;20022;-47
2022/03/30 01:39:36;;;;;;;14.63;3.67;;;3.10;99.90;;;;;;5149887;27;20026;-49
2022/03/30 01:42:02;;;;;;;9.65;4.13;;;3.10;99.90;;;;;;5150809;27;20083;-47
2022/03/30 01:44:28;;;;;;;12.05;4.18;;;3.00;99.90;;;;;;5133574;27;20024;-47
2022/03/30 01:46:53;;;;;;;22.80;4.35;;;3.00;99.90;;;;;;5141781;27;20433;-48
2022/03/30 01:49:21;;;;;;;13.77;4.10;;;3.00;99.90;;;;;;5149766;27;20532;-47
2022/03/30 01:51:49;;;;;;;15.68;3.78;;;3.00;99.90;;;;;;5150487;27;20023;-47
2022/03/30 01:54:17;;;;;;;11.90;3.72;;;3.00;99.90;;;;;;5149058;27;20113;-47
2022/03/30 01:56:42;;;;;;;18.67;3.50;;;3.00;99.90;;;;;;5150509;27;20033;-47
2022/03/30 01:59:08;;;;;;;11.10;3.50;;;3.00;99.90;;;;;;5149018;27;20425;-48
2022/03/30 02:01:33;;;;;;;16.65;4.18;;;3.00;99.90;;;;;;5149970;27;20083;-47
2022/03/30 02:04:00;;;;;;;7.85;3.53;;;2.90;99.90;;;;;;5150177;27;20282;-47
2022/03/30 02:06:26;;;;;;;9.63;3.60;;;2.90;99.90;;;;;;5150138;27;20019;-48
2022/03/30 02:08:52;;;;;;;9.45;3.72;;;2.80;99.90;;;;;;5149746;27;20088;-48
2022/03/30 02:11:17;;;;;;;9.35;3.00;;;2.80;99.90;;;;;;5150458;27;20019;-51
2022/03/30 02:13:43;;;;;;;11.75;3.60;;;2.70;99.90;;;;;;5142043;27;20095;-47
2022/03/30 02:16:08;;;;;;;17.63;3.28;;;2.80;99.90;;;;;;5133380;27;20035;-47
2022/03/30 02:18:35;;;;;;;9.32;3.08;;;2.80;99.90;;;;;;5147106;27;20510;-48
2022/03/30 02:21:00;;;;;;;7.68;3.65;;;2.70;99.90;;;;;;5149965;27;20124;-48
2022/03/30 02:23:26;;;;;;;13.82;4.93;;;2.70;99.90;;;;;;5150065;27;20023;-47
2022/03/30 02:25:51;;;;;;;15.65;4.32;;;2.70;99.90;;;;;;5140664;27;20031;-47
2022/03/30 02:28:17;;;;;;;15.27;4.63;;;2.60;99.90;;;;;;5141306;27;20026;-47
2022/03/30 02:30:42;;;;;;;9.75;3.80;;;2.60;99.90;;;;;;5147198;27;20030;-48
2022/03/30 02:33:08;;;;;;;14.25;3.80;;;2.50;99.90;;;;;;5141064;27;20019;-47
2022/03/30 02:35:33;;;;;;;11.43;4.03;;;2.50;99.90;;;;;;5149665;27;20030;-48
2022/03/30 02:37:59;;;;;;;11.25;3.92;;;2.50;99.90;;;;;;5147368;27;20023;-47
2022/03/30 02:40:25;;;;;;;9.65;3.65;;;2.50;99.90;;;;;;5120763;27;20069;-48
2022/03/30 02:42:51;;;;;;;19.00;4.47;;;2.40;99.90;;;;;;5121898;27;20015;-48
2022/03/30 02:45:16;;;;;;;15.13;4.28;;;2.40;99.90;;;;;;5125566;27;20360;-48
2022/03/30 02:50:26;;;;;;;15.00;4.38;;;2.20;99.90;;;;;;5149728;27;20087;-47
2022/03/30 02:52:51;;;;;;;13.43;3.92;;;2.10;99.90;;;;;;5150044;27;20023;-48
2022/03/30 02:55:17;;;;;;;17.20;4.35;;;2.00;99.90;;;;;;5133710;27;20033;-47
2022/03/30 02:57:42;;;;;;;13.60;3.88;;;2.10;99.90;;;;;;5141344;27;20380;-50
2022/03/30 03:00:08;;;;;;;16.77;5.47;;;2.10;99.90;;;;;;5140482;27;20024;-50
2022/03/30 03:02:35;;;;;;;8.27;3.55;;;2.10;99.90;;;;;;5139145;27;20020;-49
2022/03/30 03:05:03;;;;;;;16.20;3.63;;;2.00;99.90;;;;;;5149459;27;20030;-47
2022/03/30 03:07:29;;;;;;;11.20;2.90;;;2.00;99.90;;;;;;5149708;27;20069;-48
2022/03/30 03:09:54;;;;;;;9.05;3.97;;;1.90;99.90;;;;;;5135601;27;20488;-48
2022/03/30 03:12:21;;;;;;;10.13;3.60;;;1.90;99.90;;;;;;5144273;27;20081;-47
2022/03/30 03:14:46;;;;;;;15.43;4.20;;;1.90;99.90;;;;;;5151848;27;20047;-48
2022/03/30 03:17:12;;;;;;;20.15;5.72;;;1.80;99.90;;;;;;5153429;27;20093;-47
2022/03/30 03:19:37;;;;;;;14.90;3.85;;;1.80;99.90;;;;;;5152841;27;20015;-47
2022/03/30 03:22:04;;;;;;;18.80;4.28;;;1.90;99.90;;;;;;5153139;27;20102;-50
2022/03/30 03:24:29;;;;;;;19.00;4.38;;;2.00;99.90;;;;;;5153273;27;20022;-49
2022/03/30 03:26:55;;;;;;;12.82;4.38;;;2.00;99.90;;;;;;5137990;27;20364;-49
2022/03/30 03:29:20;;;;;;;12.73;4.38;;;2.10;99.90;;;;;;5143544;27;20019;-48
2022/03/30 03:31:46;;;;;;;11.48;4.40;;;2.00;99.90;;;;;;5152885;27;20432;-47
2022/03/30 03:34:12;;;;;;;11.82;3.65;;;2.00;99.90;;;;;;5146227;27;20034;-47
2022/03/30 03:36:37;;;;;;;15.48;4.53;;;1.80;99.90;;;;;;5143279;27;20379;-47
2022/03/30 03:39:03;;;;;;;19.27;5.63;;;1.70;99.90;;;;;;5151168;27;20045;-50
2022/03/30 03:41:28;;;;;;;13.65;4.47;;;1.70;99.90;;;;;;5147971;27;20020;-48
2022/03/30 03:43:54;;;;;;;18.13;4.25;;;1.70;99.90;;;;;;5143709;27;20061;-47
2022/03/30 03:46:19;;;;;;;11.63;4.47;;;1.70;99.90;;;;;;5152738;27;20017;-48
2022/03/30 03:48:45;;;;;;;17.30;4.38;;;1.70;99.90;;;;;;5151553;27;20098;-47
2022/03/30 03:51:10;;;;;;;13.75;3.90;;;1.60;99.90;;;;;;5136283;27;20043;-47
2022/03/30 03:53:36;;;;;;;19.13;4.65;;;1.60;99.90;;;;;;5151879;27;20320;-47
2022/03/30 03:56:03;;;;;;;16.50;4.63;;;1.70;99.90;;;;;;5152396;27;20027;-46
2022/03/30 03:58:29;;;;;;;14.43;5.32;;;1.70;99.90;;;;;;5152229;27;20033;-49
2022/03/30 04:00:54;;;;;;;14.77;5.47;;;1.70;99.90;;;;;;5137091;27;20434;-47
2022/03/30 04:03:21;;;;;;;14.32;5.75;;;1.70;99.90;;;;;;5139650;27;20050;-49
2022/03/30 04:05:47;;;;;;;15.40;5.90;;;1.70;99.90;;;;;;5152649;27;20023;-47
2022/03/30 04:08:12;;;;;;;18.10;6.93;;;1.70;99.90;;;;;;5145213;27;20023;-47
2022/03/30 04:10:38;;;;;;;16.15;5.18;;;1.70;99.90;;;;;;5131191;27;20027;-47
2022/03/30 04:13:07;;;;;;;18.67;6.25;;;1.70;99.90;;;;;;5131333;27;20031;-47
2022/03/30 04:15:33;;;;;;;15.57;4.97;;;1.80;99.90;;;;;;5133186;27;20049;-49
2022/03/30 04:18:00;;;;;;;17.58;5.22;;;1.80;99.90;;;;;;5144862;27;20386;-47
2022/03/30 04:20:26;;;;;;;11.90;5.25;;;1.80;99.90;;;;;;5132620;27;20024;-47
2022/03/30 04:22:51;;;;;;;14.55;5.55;;;1.90;99.90;;;;;;5138315;27;20026;-47
2022/03/30 04:25:17;;;;;;;22.58;5.32;;;1.90;99.90;;;;;;5131194;27;20110;-47
2022/03/30 04:27:47;;;;;;;22.85;4.90;;;1.90;99.90;;;;;;5129718;27;20019;-47
2022/03/30 04:30:14;;;;;;;14.65;5.00;;;2.00;99.90;;;;;;5132137;27;20034;-47
2022/03/30 04:32:40;;;;;;;15.57;4.35;;;2.00;99.90;;;;;;5141634;27;20030;-47
2022/03/30 04:35:07;;;;;;;17.08;4.85;;;2.00;99.90;;;;;;5144185;27;20058;-47
2022/03/30 04:37:33;;;;;;;13.75;3.95;;;2.10;99.90;;;;;;5143016;27;20037;-47
2022/03/30 04:39:58;;;;;;;16.45;4.47;;;2.10;99.90;;;;;;5149596;27;20027;-49
2022/03/30 04:42:24;;;;;;;19.40;6.30;;;2.20;99.90;;;;;;5149030;27;20018;-49
2022/03/30 04:44:49;;;;;;;13.90;5.15;;;2.20;99.90;;;;;;5144139;27;20015;-46
2022/03/30 04:47:16;;;;;;;20.05;5.40;;;2.20;99.90;;;;;;5151851;27;20025;-48
2022/03/30 04:49:41;;;;;;;12.15;4.35;;;2.20;99.90;;;;;;5133329;27;20492;-45
2022/03/30 04:52:07;;;;;;;11.95;3.88;;;2.20;99.90;;;;;;5122261;27;20058;-47
2022/03/30 04:54:33;;;;;;;14.15;4.82;;;2.10;99.90;;;;;;5117457;27;20020;-46
2022/03/30 04:56:59;;;;;;;12.68;5.00;;;2.20;99.90;;;;;;5121385;27;20027;-50
2022/03/30 04:59:24;;;;;;;16.42;4.30;;;2.20;99.90;;;;;;5117939;27;20050;-46
2022/03/30 05:01:49;;;;;;;11.23;4.88;;;2.20;99.90;;;;;;5122457;27;20646;-48
2022/03/30 05:04:15;;;;;;;9.55;5.00;;;2.20;99.90;;;;;;5120459;27;20099;-46
2022/03/30 05:06:40;;;;;;;18.63;4.60;;;2.20;99.90;;;;;;5119127;27;20039;-47
2022/03/30 05:09:06;;;;;;;18.90;4.78;;;2.30;99.90;;;;;;5124612;27;20019;-46
2022/03/30 05:11:31;;;;;;;12.88;3.85;;;2.30;99.90;;;;;;5142541;27;20026;-46
2022/03/30 05:13:57;;;;;;;15.77;5.10;;;2.30;99.90;;;;;;5146361;27;20056;-46
2022/03/30 05:16:23;;;;;;;11.93;4.50;;;2.40;99.90;;;;;;5136956;27;20527;-46
2022/03/30 05:18:48;;;;;;;11.05;3.97;;;2.40;99.90;;;;;;5148627;27;20061;-46
2022/03/30 05:21:14;;;;;;;14.07;5.05;;;2.40;99.90;;;;;;5120218;27;20444;-47
2022/03/30 05:23:39;;;;;;;9.52;4.00;;;2.30;99.90;;;;;;5116045;27;20015;-48
2022/03/30 05:26:05;;;;;;;19.27;4.70;;;2.30;99.90;;;;;;5118279;27;20027;-46
2022/03/30 05:28:30;;;;;;;23.48;4.95;;;2.40;99.90;;;;;;5116675;27;20371;-46
2022/03/30 05:30:56;;;;;;;23.20;5.95;;;2.40;99.90;;;;;;5118413;27;20031;-46
2022/03/30 05:33:21;;;;;;;15.18;4.53;;;2.40;99.90;;;;;;5120408;27;20035;-46
2022/03/30 05:35:51;;;;;;;11.35;4.40;;;2.40;99.90;;;;;;5120857;27;20031;-47
2022/03/30 05:38:16;;;;;;;9.38;3.58;;;2.40;99.90;;;;;;5115582;27;20376;-47
2022/03/30 05:40:42;;;;;;;12.23;4.60;;;2.50;99.90;;;;;;5114193;27;20039;-47
2022/03/30 05:43:08;;;;;;;18.80;4.47;;;2.50;99.90;;;;;;5124581;27;20388;-46
2022/03/30 05:45:34;;;;;;;9.73;4.65;;;2.50;99.90;;;;;;5121261;27;20030;-46
2022/03/30 05:48:00;;;;;;;11.65;5.05;;;2.50;99.90;;;;;;5117088;27;20606;-46
2022/03/30 05:50:26;;;;;;;15.48;4.85;;;2.50;99.90;;;;;;5124704;27;20420;-46
2022/03/30 05:52:52;;;;;;;16.80;5.18;;;2.50;99.90;;;;;;5112947;27;20024;-45
2022/03/30 05:55:18;;;;;;;20.17;5.28;;;2.60;99.90;;;;;;5125493;27;20155;-46
2022/03/30 05:57:43;;;;;;;11.15;4.95;;;2.60;99.90;;;;;;5121773;27;20016;-45
2022/03/30 06:00:10;;;;;;;18.60;6.25;;;2.70;99.90;;;;;;5116251;27;20036;-45
2022/03/30 06:02:35;;;;;;;16.00;5.88;;;2.70;99.90;;;;;;5136228;27;20511;-46
2022/03/30 06:05:01;;;;;;;15.35;5.50;;;2.80;99.90;;;;;;5127883;27;20027;-47
2022/03/30 06:07:27;;;;;;;16.30;5.07;;;2.80;99.90;;;;;;5127793;28;20395;-47
2022/03/30 06:09:52;;;;;;;16.70;4.68;;;2.80;99.90;;;;;;5127151;27;20129;-46
2022/03/30 06:12:17;;;;;;;19.92;7.30;;;2.90;99.90;;;;;;5140054;27;20015;-47
2022/03/30 06:14:43;;;;;;;18.08;6.22;;;3.00;99.90;;;;;;5143494;27;20371;-47
2022/03/30 06:17:10;;;;;;;10.57;5.25;;;3.10;99.90;;;;;;5132380;27;20027;-46
2022/03/30 06:19:38;;;;;;;16.27;4.50;;;3.10;99.90;;;;;;5148637;27;20379;-46
2022/03/30 06:22:08;;;;;;;15.95;5.93;;;3.20;99.90;;;;;;5139203;27;20027;-47
2022/03/30 06:24:36;;;;;;;16.83;5.55;;;3.20;99.90;;;;;;5149061;27;20018;-47
2022/03/30 06:27:03;;;;;;;14.02;5.28;;;3.30;99.90;;;;;;5149742;27;20030;-46
2022/03/30 06:29:29;;;;;;;18.10;5.78;;;3.30;99.90;;;;;;5130849;27;20093;-48
2022/03/30 06:31:54;;;;;;;11.65;5.18;;;3.10;99.90;;;;;;5141491;27;20316;-46
2022/03/30 06:34:20;;;;;;;9.93;5.25;;;3.20;99.90;;;;;;5146327;27;20062;-47
2022/03/30 06:36:45;;;;;;;20.88;6.18;;;3.20;99.90;;;;;;5138023;27;20034;-47
2022/03/30 06:39:11;;;;;;;13.23;5.07;;;3.40;99.90;;;;;;5145562;27;20499;-46
2022/03/30 06:41:36;;;;;;;15.75;4.90;;;3.40;99.90;;;;;;5128192;27;20361;-48
2022/03/30 06:44:02;;;;;;;12.07;5.35;;;3.60;99.90;;;;;;5107175;28;20050;-46
2022/03/30 06:46:29;;;;;;;12.73;5.28;;;3.70;99.90;;;;;;5123810;27;20510;-46
2022/03/30 06:48:54;;;;;;;16.17;5.78;;;3.80;99.90;;;;;;5146519;27;20019;-46
2022/03/30 06:51:20;;;;;;;16.10;6.10;;;4.00;99.90;;;;;;5132414;27;20037;-47
2022/03/30 06:53:46;;;;;;;13.10;5.03;;;4.20;99.90;;;;;;5114535;27;20038;-46
2022/03/30 06:56:12;;;;;;;14.50;4.97;;;4.40;99.90;;;;;;5113985;28;20052;-46
2022/03/30 06:58:37;;;;;;;14.52;5.22;;;4.60;99.90;;;;;;5113259;28;20440;-46
2022/03/30 07:01:03;;;;;;;8.30;3.95;;;4.80;99.90;;;;;;5112724;27;20031;-46
2022/03/30 07:03:29;;;;;;;12.82;5.20;;;4.90;99.90;;;;;;5114165;28;20050;-47
2022/03/30 07:05:55;;;;;;;13.02;4.50;;;5.00;99.90;;;;;;5113091;28;20031;-46
2022/03/30 07:11:05;;;;;;;11.75;4.40;;;5.20;99.90;;;;;;5117889;27;20041;-46
2022/03/30 07:13:30;;;;;;;13.30;4.50;;;5.30;99.90;;;;;;5134173;27;20027;-46
2022/03/30 07:15:56;;;;;;;17.33;5.25;;;5.40;99.90;;;;;;5125762;27;20524;-47
2022/03/30 07:18:21;;;;;;;13.77;3.95;;;5.50;99.90;;;;;;5140807;27;20023;-47
2022/03/30 07:20:47;;;;;;;13.02;3.85;;;5.50;99.90;;;;;;5127082;27;20035;-47
2022/03/30 07:23:14;;;;;;;15.20;4.55;;;5.70;99.90;;;;;;5113791;28;20644;-46
2022/03/30 07:25:40;;;;;;;15.20;5.18;;;5.80;99.90;;;;;;5112663;27;20012;-47
2022/03/30 07:28:06;;;;;;;13.57;4.85;;;5.90;99.90;;;;;;5133728;27;20638;-47
2022/03/30 07:30:32;;;;;;;14.40;3.83;;;5.90;99.90;;;;;;5144577;27;20114;-46
2022/03/30 07:32:58;;;;;;;11.88;3.65;;;6.10;99.90;;;;;;5133761;27;20023;-46
2022/03/30 07:35:30;;;;;;;13.98;4.22;;;6.30;99.90;;;;;;5133497;27;20040;-49
2022/03/30 07:37:56;;;;;;;16.50;4.63;;;6.40;99.90;;;;;;5140480;27;20034;-46
2022/03/30 07:40:24;;;;;;;8.32;3.85;;;6.50;99.90;;;;;;5131769;27;20457;-47
2022/03/30 07:42:50;;;;;;;10.40;3.75;;;6.60;99.90;;;;;;5135483;27;20015;-48
2022/03/30 07:45:17;;;;;;;11.85;4.13;;;6.70;99.90;;;;;;5148442;27;20046;-47
2022/03/30 07:47:43;;;;;;;10.27;4.18;;;6.70;99.90;;;;;;5146511;27;20406;-47
2022/03/30 07:50:10;;;;;;;10.38;3.83;;;6.70;99.90;;;;;;5144006;27;20023;-46
2022/03/30 07:52:36;;;;;;;9.98;4.45;;;6.80;99.90;;;;;;5133989;27;20027;-45
2022/03/30 07:55:03;;;;;;;12.23;3.63;;;6.80;99.90;;;;;;5137399;27;20015;-46
2022/03/30 07:57:29;;;;;;;14.77;5.13;;;6.80;99.90;;;;;;5145235;27;20037;-47
2022/03/30 07:59:59;;;;;;;10.43;2.97;;;6.90;99.90;;;;;;5141531;27;20028;-47
2022/03/30 08:02:27;;;;;;;13.45;4.03;;;7.00;99.90;;;;;;5124500;27;20027;-46
2022/03/30 08:04:54;;;;;;;14.43;3.65;;;7.10;99.90;;;;;;5123016;27;20094;-46
2022/03/30 08:07:21;;;;;;;11.43;3.80;;;7.10;99.90;;;;;;5123315;27;20467;-47
2022/03/30 08:09:47;;;;;;;14.20;3.90;;;7.20;99.90;;;;;;5119735;27;20028;-47
2022/03/30 08:12:14;;;;;;;14.68;3.90;;;7.20;99.90;;;;;;5124692;27;20054;-47
2022/03/30 08:14:41;;;;;;;9.05;2.88;;;7.40;99.90;;;;;;5120907;27;20092;-49
2022/03/30 08:17:06;;;;;;;11.60;3.20;;;7.60;99.90;;;;;;5121325;27;20011;-45
2022/03/30 08:19:32;;;;;;;9.00;3.25;;;7.80;99.90;;;;;;5121707;27;20038;-47
2022/03/30 08:24:46;;;;;;;9.48;2.78;;;8.20;99.80;;;;;;5124345;27;20076;-47
2022/03/30 08:27:15;;;;;;;8.18;2.72;;;8.30;99.20;;;;;;5121464;27;20015;-46
2022/03/30 08:29:40;;;;;;;11.38;3.08;;;8.40;98.60;;;;;;5120566;27;20087;-49
2022/03/30 08:32:07;;;;;;;14.23;3.25;;;8.50;98.20;;;;;;5125109;27;20103;-48
2022/03/30 08:34:32;;;;;;;9.13;3.40;;;8.60;97.10;;;;;;5124878;27;20019;-46
2022/03/30 08:36:58;;;;;;;12.93;3.40;;;8.60;97.50;;;;;;5125579;27;20023;-46
2022/03/30 08:39:24;;;;;;;20.92;4.07;;;8.70;96.50;;;;;;5131642;27;20019;-47
2022/03/30 08:41:50;;;;;;;9.10;3.10;;;8.70;96.00;;;;;;5131360;27;20070;-47
2022/03/30 08:44:17;;;;;;;10.45;3.03;;;8.70;96.70;;;;;;5131810;27;20023;-46
2022/03/30 08:46:47;;;;;;;18.17;3.72;;;8.80;96.80;;;;;;5131867;27;20015;-46
2022/03/30 08:49:16;;;;;;;14.95;4.25;;;8.80;96.00;;;;;;5131376;27;20026;-46
2022/03/30 08:51:49;;;;;;;8.00;2.95;;;8.60;97.00;;;;;;5114176;27;20024;-45
2022/03/30 08:54:17;;;;;;;11.75;3.88;;;8.60;96.50;;;;;;5120397;27;20389;-46
2022/03/30 08:56:43;;;;;;;12.93;3.60;;;8.60;96.30;;;;;;5126606;27;20641;-47
2022/03/30 08:59:15;;;;;;;11.32;3.80;;;8.80;96.50;;;;;;5144114;27;20084;-46
2022/03/30 09:01:40;;;;;;;9.35;3.78;;;9.00;95.60;;;;;;5122318;27;20018;-49
2022/03/30 09:04:10;;;;;;;14.23;4.35;;;9.00;95.50;;;;;;5139978;27;20019;-47
2022/03/30 09:06:35;;;;;;;15.45;3.72;;;8.90;95.20;;;;;;5131855;27;20030;-47
2022/03/30 09:09:01;;;;;;;15.02;4.30;;;8.70;95.30;;;;;;5136152;27;20528;-49
2022/03/30 09:11:37;;;;;;;11.50;3.15;;;8.60;95.50;;;;;;5121442;27;20027;-47
2022/03/30 09:14:04;;;;;;;15.88;4.03;;;8.60;95.30;;;;;;5117672;27;20027;-48
2022/03/30 09:16:57;;;;;;;6.57;3.45;;;8.70;96.10;;;;;;5141000;27;20102;-48
2022/03/30 09:19:24;;;;;;;14.35;4.00;;;8.70;96.10;;;;;;5116453;27;20038;-45
2022/03/30 09:21:56;;;;;;;16.60;4.00;;;8.80;96.20;;;;;;5139197;27;20084;-48
2022/03/30 09:24:27;;;;;;;14.73;3.80;;;9.00;95.90;;;;;;5131496;27;20023;-47
2022/03/30 09:26:54;;;;;;;11.88;4.93;;;9.10;95.60;;;;;;5131263;27;20026;-46
2022/03/30 09:29:21;;;;;;;15.90;3.75;;;9.30;95.40;;;;;;5130738;27;20071;-46
2022/03/30 09:31:48;;;;;;;14.85;3.20;;;9.40;95.20;;;;;;5129573;27;20442;-46
2022/03/30 09:34:15;;;;;;;10.85;4.13;;;9.40;94.90;;;;;;5129564;27;20035;-47
2022/03/30 09:36:42;;;;;;;12.45;3.90;;;9.40;95.10;;;;;;5126386;27;20029;-47
2022/03/30 09:39:36;;;;;;;18.08;3.95;;;9.40;94.70;;;;;;5134126;27;20114;-47
2022/03/30 09:42:04;;;;;;;11.27;3.45;;;9.70;93.20;;;;;;5114015;27;20019;-47
2022/03/30 09:44:30;;;;;;;9.88;3.63;;;10.10;93.60;;;;;;5123542;27;20471;-40
2022/03/30 09:47:03;;;;;;;17.33;4.05;;;10.10;91.90;;;;;;5118624;27;20019;-36
2022/03/30 09:49:31;;;;;;;11.15;3.40;;;10.00;92.10;;;;;;5117086;27;20019;-38
2022/03/30 09:51:57;;;;;;;10.35;3.38;;;10.20;92.00;;;;;;5118963;27;20181;-37
2022/03/30 09:54:59;;;;;;;9.23;3.33;;;10.40;92.10;;;;;;5118142;27;20021;-39
2022/03/30 09:57:37;;;;;;;13.90;4.25;;;10.60;91.00;;;;;;5120906;27;20321;-38
2022/03/30 10:00:03;;;;;;;13.90;4.95;;;10.60;90.90;;;;;;5115080;27;20028;-38
2022/03/30 10:02:34;;;;;;;10.85;3.50;;;10.80;90.70;;;;;;5133150;27;20023;-39
2022/03/30 10:05:00;;;;;;;14.52;3.90;;;11.10;88.50;;;;;;5122035;27;20164;-38
2022/03/30 10:07:27;;;;;;;10.52;4.55;;;11.20;89.20;;;;;;5114905;28;20019;-37
2022/03/30 10:09:52;;;;;;;9.80;3.30;;;11.30;88.20;;;;;;5114676;28;20024;-38
2022/03/30 10:12:19;;;;;;;9.52;3.78;;;11.00;86.80;;;;;;5126684;27;20031;-38
2022/03/30 10:14:46;;;;;;;12.43;3.60;;;11.00;86.60;;;;;;5143265;27;20031;-38
2022/03/30 10:17:13;;;;;;;9.18;3.40;;;11.30;87.70;;;;;;5137352;27;20027;-38
2022/03/30 10:19:42;;;;;;;7.85;2.67;;;11.60;84.50;;;;;;5143343;27;20018;-38
2022/03/30 10:22:34;;;;;;;11.70;3.15;;;11.70;85.80;;;;;;5155881;27;20015;-38
2022/03/30 10:25:17;;;;;;;13.85;3.83;;;11.70;83.90;;;;;;5114658;28;20031;-38
2022/03/30 10:27:50;;;;;;;13.45;3.00;;;11.60;85.20;;;;;;5114698;28;20522;-37
2022/03/30 10:30:29;;;;;;;16.92;3.60;;;11.60;86.60;;;;;;5116741;27;20022;-38
2022/03/30 10:32:58;;;;;;;11.70;3.55;;;11.50;84.60;;;;;;5135291;27;20435;-38
2022/03/30 10:35:36;;;;;;;15.98;3.80;;;11.50;86.50;;;;;;5134992;27;20015;-38
2022/03/30 10:38:01;;;;;;;15.02;3.70;;;11.80;85.20;;;;;;5135049;27;20076;-38
2022/03/30 10:40:27;;;;;;;10.88;3.75;;;12.10;85.60;;;;;;5128737;27;20024;-38
2022/03/30 10:42:54;;;;;;;14.15;3.45;;;12.60;82.10;;;;;;5138112;27;20046;-38
2022/03/30 10:45:28;;;;;;;9.32;3.60;;;12.80;79.70;;;;;;5131763;27;20581;-38
2022/03/30 10:48:17;;;;;;;7.60;3.50;;;13.40;79.70;;;;;;5145023;27;20026;-47
2022/03/30 10:50:59;;;;;;;15.20;7.90;;;14.90;73.00;;;;;;5141578;27;20030;-46
2022/03/30 10:53:31;;;;;;;10.73;3.53;;;16.20;69.30;;;;;;5134681;27;20027;-45
2022/03/30 10:56:15;;;;;;;15.23;3.72;;;16.10;70.10;;;;;;5126068;27;20054;-46
2022/03/30 10:58:49;;;;;;;15.10;3.40;;;17.10;63.60;;;;;;5123230;27;20031;-45
2022/03/30 11:01:18;;;;;;;8.55;3.42;;;17.50;62.20;;;;;;5122196;27;20046;-47
2022/03/30 11:04:04;;;;;;;12.00;4.07;;;17.70;58.90;;;;;;5131418;27;20025;-46
2022/03/30 11:06:33;;;;;;;8.25;2.88;;;17.50;59.80;;;;;;5127617;27;20106;-48
2022/03/30 11:09:01;;;;;;;10.25;3.25;;;18.00;56.60;;;;;;5136135;27;20497;-48
2022/03/30 11:11:30;;;;;;;14.07;4.22;;;17.90;55.80;;;;;;5140315;27;20137;-48
2022/03/30 11:14:32;;;;;;;10.98;3.72;;;17.60;57.10;;;;;;5134367;27;20058;-38
2022/03/30 11:17:03;;;;;;;7.82;2.88;;;17.90;57.00;;;;;;5136374;27;20026;-39
2022/03/30 11:19:47;;;;;;;8.55;3.20;;;17.90;56.20;;;;;;5151508;27;20368;-38
2022/03/30 11:22:15;;;;;;;10.48;3.50;;;17.70;56.20;;;;;;5132805;27;20023;-38
2022/03/30 11:24:45;;;;;;;9.10;3.47;;;17.10;56.20;;;;;;5132691;27;20047;-38
2022/03/30 11:27:10;;;;;;;14.00;4.03;;;16.70;57.10;;;;;;5125982;27;20390;-38
2022/03/30 11:29:52;;;;;;;12.68;3.58;;;15.90;58.90;;;;;;5121535;27;20023;-38
2022/03/30 11:32:30;;;;;;;10.95;3.85;;;15.70;59.40;;;;;;5129161;27;20080;-38
2022/03/30 11:35:01;;;;;;;10.43;3.05;;;15.10;61.10;;;;;;5146131;27;20574;-38
2022/03/30 11:37:29;;;;;;;12.13;3.95;;;14.80;60.30;;;;;;5152628;27;20559;-38
2022/03/30 11:40:07;;;;;;;9.68;3.50;;;14.50;61.40;;;;;;5134161;27;20031;-39
2022/03/30 11:42:34;;;;;;;11.75;3.80;;;14.30;61.80;;;;;;5119292;27;20365;-39
2022/03/30 11:45:12;;;;;;;13.35;3.80;;;14.10;64.00;;;;;;5108611;27;20020;-39
2022/03/30 11:47:49;;;;;;;19.60;4.43;;;13.90;63.10;;;;;;5132855;27;20019;-39
2022/03/30 11:50:17;;;;;;;11.32;4.13;;;13.60;63.40;;;;;;5119243;27;20019;-39
2022/03/30 11:52:52;;;;;;;15.75;4.00;;;13.80;63.60;;;;;;5126257;27;20019;-38
2022/03/30 11:55:17;;;;;;;14.05;4.22;;;13.70;63.70;;;;;;5129316;27;20014;-39
2022/03/30 11:57:43;;;;;;;11.13;4.15;;;13.60;63.10;;;;;;5127755;27;20019;-39
2022/03/30 12:00:11;;;;;;;8.82;3.47;;;13.50;64.80;;;;;;5125271;27;20020;-39
2022/03/30 12:02:44;;;;;;;9.10;3.20;;;13.40;64.50;;;;;;5123715;27;20514;-39
2022/03/30 12:05:10;;;;;;;11.57;4.05;;;13.60;65.30;;;;;;5121898;27;20487;-39
2022/03/30 12:07:38;;;;;;;22.83;11.45;;;13.40;64.00;;;;;;5123925;27;20023;-39
2022/03/30 12:10:06;;;;;;;12.00;4.15;;;13.20;64.70;;;;;;5122446;27;20016;-40
2022/03/30 12:12:37;;;;;;;13.00;3.47;;;13.10;66.90;;;;;;5123091;27;20054;-39
2022/03/30 12:15:19;;;;;;;12.38;4.05;;;13.10;67.10;;;;;;5125058;27;20015;-38
2022/03/30 12:17:53;;;;;;;11.10;3.90;;;13.30;66.10;;;;;;5118183;27;20534;-39
2022/03/30 12:20:33;;;;;;;9.77;4.03;;;13.50;66.30;;;;;;5120653;27;20041;-39
2022/03/30 12:23:00;;;;;;;10.27;3.35;;;13.60;65.20;;;;;;5120921;27;20045;-38
2022/03/30 12:25:30;;;;;;;11.25;4.05;;;13.30;65.60;;;;;;5122131;27;20083;-38
2022/03/30 12:27:56;;;;;;;11.32;3.63;;;13.30;65.00;;;;;;5124334;27;20030;-38
2022/03/30 12:30:23;;;;;;;14.43;4.45;;;13.40;65.00;;;;;;5125254;27;20024;-38
2022/03/30 12:32:49;;;;;;;11.85;3.38;;;13.50;65.50;;;;;;5117915;27;20023;-38
2022/03/30 12:35:16;;;;;;;12.10;3.28;;;13.70;64.30;;;;;;5122492;27;20505;-38
2022/03/30 12:37:46;;;;;;;10.00;3.60;;;14.00;63.60;;;;;;5118455;27;20372;-38
2022/03/30 12:40:18;;;;;;;11.00;4.15;;;14.40;62.50;;;;;;5118625;27;20019;-38
2022/03/30 12:42:45;;;;;;;6.90;3.20;;;14.30;64.90;;;;;;5124896;27;20066;-38
2022/03/30 12:45:14;;;;;;;8.27;3.30;;;14.80;63.20;;;;;;5137124;27;20046;-38
2022/03/30 12:47:55;;;;;;;9.93;3.05;;;14.80;65.30;;;;;;5142196;27;20084;-38
2022/03/30 12:50:26;;;;;;;;;;;14.80;65.60;;;;;;5117429;27;20012;-38
2022/03/30 12:52:53;;;;;;;11.77;3.28;;;14.70;65.00;;;;;;5126877;27;19914;-47
2022/03/30 12:55:38;;;;;;;8.48;3.10;;;14.60;66.70;;;;;;5130552;27;20531;-46
2022/03/30 12:58:11;;;;;;;8.85;2.83;;;14.50;67.00;;;;;;5121578;27;20495;-45
2022/03/30 13:00:37;;;;;;;9.68;3.53;;;14.80;67.30;;;;;;5124532;27;20071;-46
2022/03/30 13:03:12;;;;;;;7.25;2.70;;;14.60;66.40;;;;;;5125451;27;20472;-46